sensor_id;sensor_type;location;lat;lon;timestamp;temperature;humidity
65884;HTU21D;52663;51.038;5.858;2022-07-15T00:00:32;19.58;59.10
65884;HTU21D;52663;51.038;5.858;2022-07-15T00:02:59;19.61;58.98
65884;HTU21D;52663;51.038;5.858;2022-07-15T00:05:24;19.63;58.89
65884;HTU21D;52663;51.038;5.858;2022-07-15T00:07:52;19.55;59.15
65884;HTU21D;52663;51.038;5.858;2022-07-15T00:10:18;19.53;59.32
65884;HTU21D;52663;51.038;5.858;2022-07-15T00:12:50;19.53;59.35
65884;HTU21D;52663;51.038;5.858;2022-07-15T00:15:19;19.52;59.41
65884;HTU21D;52663;51.038;5.858;2022-07-15T00:17:46;19.50;59.54
65884;HTU21D;52663;51.038;5.858;2022-07-15T00:20:13;19.54;59.44
65884;HTU21D;52663;51.038;5.858;2022-07-15T00:22:40;19.47;59.70
65884;HTU21D;52663;51.038;5.858;2022-07-15T00:25:07;19.40;60.00
65884;HTU21D;52663;51.038;5.858;2022-07-15T00:27:34;19.39;60.10
65884;HTU21D;52663;51.038;5.858;2022-07-15T00:29:59;19.31;60.32
65884;HTU21D;52663;51.038;5.858;2022-07-15T00:32:25;19.23;60.62
65884;HTU21D;52663;51.038;5.858;2022-07-15T00:34:51;19.20;60.78
65884;HTU21D;52663;51.038;5.858;2022-07-15T00:37:17;19.23;60.78
65884;HTU21D;52663;51.038;5.858;2022-07-15T00:39:43;19.32;60.57
65884;HTU21D;52663;51.038;5.858;2022-07-15T00:42:13;19.43;60.19
65884;HTU21D;52663;51.038;5.858;2022-07-15T00:45:00;19.47;59.97
65884;HTU21D;52663;51.038;5.858;2022-07-15T00:47:26;19.42;60.05
65884;HTU21D;52663;51.038;5.858;2022-07-15T00:49:52;19.38;60.24
65884;HTU21D;52663;51.038;5.858;2022-07-15T00:52:19;19.35;60.35
65884;HTU21D;52663;51.038;5.858;2022-07-15T00:54:49;19.40;60.08
65884;HTU21D;52663;51.038;5.858;2022-07-15T00:57:17;19.35;60.18
65884;HTU21D;52663;51.038;5.858;2022-07-15T00:59:46;19.32;60.31
65884;HTU21D;52663;51.038;5.858;2022-07-15T01:02:14;19.32;60.36
65884;HTU21D;52663;51.038;5.858;2022-07-15T01:04:40;19.28;60.32
65884;HTU21D;52663;51.038;5.858;2022-07-15T01:07:06;19.27;60.38
65884;HTU21D;52663;51.038;5.858;2022-07-15T01:09:33;19.25;60.43
65884;HTU21D;52663;51.038;5.858;2022-07-15T01:11:59;19.27;60.42
65884;HTU21D;52663;51.038;5.858;2022-07-15T01:14:26;19.29;60.43
65884;HTU21D;52663;51.038;5.858;2022-07-15T01:16:51;19.30;60.41
65884;HTU21D;52663;51.038;5.858;2022-07-15T01:19:18;19.35;60.19
65884;HTU21D;52663;51.038;5.858;2022-07-15T01:21:45;19.33;60.18
65884;HTU21D;52663;51.038;5.858;2022-07-15T01:24:11;19.29;60.23
65884;HTU21D;52663;51.038;5.858;2022-07-15T01:26:57;19.24;60.29
65884;HTU21D;52663;51.038;5.858;2022-07-15T01:29:22;19.17;60.61
65884;HTU21D;52663;51.038;5.858;2022-07-15T01:31:48;19.21;60.46
65884;HTU21D;52663;51.038;5.858;2022-07-15T01:34:15;19.23;60.49
65884;HTU21D;52663;51.038;5.858;2022-07-15T01:36:40;19.28;60.35
65884;HTU21D;52663;51.038;5.858;2022-07-15T01:39:06;19.25;60.29
65884;HTU21D;52663;51.038;5.858;2022-07-15T01:41:32;19.21;60.49
65884;HTU21D;52663;51.038;5.858;2022-07-15T01:43:59;19.20;60.57
65884;HTU21D;52663;51.038;5.858;2022-07-15T01:46:25;19.21;60.56
65884;HTU21D;52663;51.038;5.858;2022-07-15T01:48:51;19.22;60.49
65884;HTU21D;52663;51.038;5.858;2022-07-15T01:52:01;19.25;60.24
65884;HTU21D;52663;51.038;5.858;2022-07-15T01:54:30;19.23;60.28
65884;HTU21D;52663;51.038;5.858;2022-07-15T01:57:00;19.27;60.17
65884;HTU21D;52663;51.038;5.858;2022-07-15T01:59:28;19.30;59.94
65884;HTU21D;52663;51.038;5.858;2022-07-15T02:01:56;19.29;59.93
65884;HTU21D;52663;51.038;5.858;2022-07-15T02:04:23;19.21;60.00
65884;HTU21D;52663;51.038;5.858;2022-07-15T02:06:50;19.16;60.10
65884;HTU21D;52663;51.038;5.858;2022-07-15T02:09:19;19.15;60.05
65884;HTU21D;52663;51.038;5.858;2022-07-15T02:11:47;19.14;60.00
65884;HTU21D;52663;51.038;5.858;2022-07-15T02:14:13;19.13;59.97
65884;HTU21D;52663;51.038;5.858;2022-07-15T02:16:40;19.07;60.00
65884;HTU21D;52663;51.038;5.858;2022-07-15T02:19:11;18.95;60.23
65884;HTU21D;52663;51.038;5.858;2022-07-15T02:21:36;18.86;60.45
65884;HTU21D;52663;51.038;5.858;2022-07-15T02:24:03;18.74;60.70
65884;HTU21D;52663;51.038;5.858;2022-07-15T02:26:29;18.59;60.93
65884;HTU21D;52663;51.038;5.858;2022-07-15T02:28:56;18.43;61.41
65884;HTU21D;52663;51.038;5.858;2022-07-15T02:31:26;18.28;61.80
65884;HTU21D;52663;51.038;5.858;2022-07-15T02:33:52;18.20;62.13
65884;HTU21D;52663;51.038;5.858;2022-07-15T02:36:18;18.18;62.31
65884;HTU21D;52663;51.038;5.858;2022-07-15T02:38:46;18.18;62.35
65884;HTU21D;52663;51.038;5.858;2022-07-15T02:41:13;18.19;62.19
65884;HTU21D;52663;51.038;5.858;2022-07-15T02:43:41;18.20;62.22
65884;HTU21D;52663;51.038;5.858;2022-07-15T02:46:11;18.20;62.21
65884;HTU21D;52663;51.038;5.858;2022-07-15T02:48:38;18.14;62.25
65884;HTU21D;52663;51.038;5.858;2022-07-15T02:51:04;18.10;62.30
65884;HTU21D;52663;51.038;5.858;2022-07-15T02:53:31;18.04;62.52
65884;HTU21D;52663;51.038;5.858;2022-07-15T02:56:02;18.00;62.54
65884;HTU21D;52663;51.038;5.858;2022-07-15T02:58:29;17.93;62.60
65884;HTU21D;52663;51.038;5.858;2022-07-15T03:00:57;17.82;62.87
65884;HTU21D;52663;51.038;5.858;2022-07-15T03:03:25;17.72;63.14
65884;HTU21D;52663;51.038;5.858;2022-07-15T03:05:58;17.63;63.47
65884;HTU21D;52663;51.038;5.858;2022-07-15T03:08:25;17.61;63.58
65884;HTU21D;52663;51.038;5.858;2022-07-15T03:10:50;17.55;63.82
65884;HTU21D;52663;51.038;5.858;2022-07-15T03:13:17;17.58;63.76
65884;HTU21D;52663;51.038;5.858;2022-07-15T03:15:43;17.59;63.74
65884;HTU21D;52663;51.038;5.858;2022-07-15T03:18:09;17.61;63.67
65884;HTU21D;52663;51.038;5.858;2022-07-15T03:20:34;17.65;63.51
65884;HTU21D;52663;51.038;5.858;2022-07-15T03:23:01;17.65;63.36
65884;HTU21D;52663;51.038;5.858;2022-07-15T03:25:28;17.61;63.37
65884;HTU21D;52663;51.038;5.858;2022-07-15T03:27:56;17.54;63.49
65884;HTU21D;52663;51.038;5.858;2022-07-15T03:30:22;17.51;63.69
65884;HTU21D;52663;51.038;5.858;2022-07-15T03:32:48;17.50;63.69
65884;HTU21D;52663;51.038;5.858;2022-07-15T03:35:15;17.50;63.62
65884;HTU21D;52663;51.038;5.858;2022-07-15T03:37:41;17.45;63.89
65884;HTU21D;52663;51.038;5.858;2022-07-15T03:40:09;17.43;63.91
65884;HTU21D;52663;51.038;5.858;2022-07-15T03:42:37;17.36;64.02
65884;HTU21D;52663;51.038;5.858;2022-07-15T03:45:03;17.31;64.11
65884;HTU21D;52663;51.038;5.858;2022-07-15T03:47:30;17.22;64.34
65884;HTU21D;52663;51.038;5.858;2022-07-15T03:49:56;17.15;64.66
65884;HTU21D;52663;51.038;5.858;2022-07-15T03:52:22;17.09;64.87
65884;HTU21D;52663;51.038;5.858;2022-07-15T03:54:48;17.06;65.22
65884;HTU21D;52663;51.038;5.858;2022-07-15T03:57:14;17.11;65.14
65884;HTU21D;52663;51.038;5.858;2022-07-15T03:59:39;17.09;65.25
65884;HTU21D;52663;51.038;5.858;2022-07-15T04:02:05;17.09;65.39
65884;HTU21D;52663;51.038;5.858;2022-07-15T04:04:31;17.13;65.29
65884;HTU21D;52663;51.038;5.858;2022-07-15T04:06:57;17.18;65.21
65884;HTU21D;52663;51.038;5.858;2022-07-15T04:09:23;17.18;65.26
65884;HTU21D;52663;51.038;5.858;2022-07-15T04:11:49;17.24;65.12
65884;HTU21D;52663;51.038;5.858;2022-07-15T04:14:15;17.31;64.95
65884;HTU21D;52663;51.038;5.858;2022-07-15T04:16:44;17.35;64.87
65884;HTU21D;52663;51.038;5.858;2022-07-15T04:19:23;17.40;64.65
65884;HTU21D;52663;51.038;5.858;2022-07-15T04:21:50;17.43;64.66
65884;HTU21D;52663;51.038;5.858;2022-07-15T04:24:16;17.41;64.55
65884;HTU21D;52663;51.038;5.858;2022-07-15T04:26:42;17.44;64.57
65884;HTU21D;52663;51.038;5.858;2022-07-15T04:29:08;17.45;64.52
65884;HTU21D;52663;51.038;5.858;2022-07-15T04:31:35;17.45;64.50
65884;HTU21D;52663;51.038;5.858;2022-07-15T04:34:12;17.40;64.59
65884;HTU21D;52663;51.038;5.858;2022-07-15T04:36:41;17.41;64.78
65884;HTU21D;52663;51.038;5.858;2022-07-15T04:39:06;17.47;64.64
65884;HTU21D;52663;51.038;5.858;2022-07-15T04:41:32;17.49;64.54
65884;HTU21D;52663;51.038;5.858;2022-07-15T04:43:58;17.54;64.27
65884;HTU21D;52663;51.038;5.858;2022-07-15T04:46:23;17.54;64.27
65884;HTU21D;52663;51.038;5.858;2022-07-15T04:49:00;17.52;64.36
65884;HTU21D;52663;51.038;5.858;2022-07-15T04:51:44;17.50;64.48
65884;HTU21D;52663;51.038;5.858;2022-07-15T04:54:10;17.49;64.56
65884;HTU21D;52663;51.038;5.858;2022-07-15T04:56:36;17.48;64.66
65884;HTU21D;52663;51.038;5.858;2022-07-15T04:59:05;17.47;64.71
65884;HTU21D;52663;51.038;5.858;2022-07-15T05:01:31;17.46;64.78
65884;HTU21D;52663;51.038;5.858;2022-07-15T05:03:57;17.43;64.76
65884;HTU21D;52663;51.038;5.858;2022-07-15T05:06:23;17.40;64.92
65884;HTU21D;52663;51.038;5.858;2022-07-15T05:08:50;17.45;64.81
65884;HTU21D;52663;51.038;5.858;2022-07-15T05:11:18;17.44;64.83
65884;HTU21D;52663;51.038;5.858;2022-07-15T05:13:47;17.46;64.92
65884;HTU21D;52663;51.038;5.858;2022-07-15T05:16:12;17.48;64.92
65884;HTU21D;52663;51.038;5.858;2022-07-15T05:18:38;17.53;64.88
65884;HTU21D;52663;51.038;5.858;2022-07-15T05:21:04;17.62;64.79
65884;HTU21D;52663;51.038;5.858;2022-07-15T05:23:35;17.76;64.39
65884;HTU21D;52663;51.038;5.858;2022-07-15T05:26:04;17.84;64.12
65884;HTU21D;52663;51.038;5.858;2022-07-15T05:28:30;17.92;63.98
65884;HTU21D;52663;51.038;5.858;2022-07-15T05:30:56;18.04;63.56
65884;HTU21D;52663;51.038;5.858;2022-07-15T05:33:24;18.06;63.54
65884;HTU21D;52663;51.038;5.858;2022-07-15T05:35:51;18.13;63.37
65884;HTU21D;52663;51.038;5.858;2022-07-15T05:38:18;18.21;63.29
65884;HTU21D;52663;51.038;5.858;2022-07-15T05:40:44;18.30;63.16
65884;HTU21D;52663;51.038;5.858;2022-07-15T05:43:09;18.35;63.08
65884;HTU21D;52663;51.038;5.858;2022-07-15T05:45:39;18.47;62.80
65884;HTU21D;52663;51.038;5.858;2022-07-15T05:48:07;18.56;62.34
65884;HTU21D;52663;51.038;5.858;2022-07-15T05:50:41;18.67;62.06
65884;HTU21D;52663;51.038;5.858;2022-07-15T05:53:08;18.76;61.62
65884;HTU21D;52663;51.038;5.858;2022-07-15T05:55:34;18.82;61.44
65884;HTU21D;52663;51.038;5.858;2022-07-15T05:58:06;18.84;61.09
65884;HTU21D;52663;51.038;5.858;2022-07-15T06:00:32;18.82;61.22
65884;HTU21D;52663;51.038;5.858;2022-07-15T06:03:00;18.84;61.19
65884;HTU21D;52663;51.038;5.858;2022-07-15T06:05:29;18.81;61.26
65884;HTU21D;52663;51.038;5.858;2022-07-15T06:08:00;18.88;61.05
65884;HTU21D;52663;51.038;5.858;2022-07-15T06:10:31;18.98;60.70
65884;HTU21D;52663;51.038;5.858;2022-07-15T06:12:57;19.07;60.53
65884;HTU21D;52663;51.038;5.858;2022-07-15T06:15:23;19.22;59.90
65884;HTU21D;52663;51.038;5.858;2022-07-15T06:17:50;19.30;59.47
65884;HTU21D;52663;51.038;5.858;2022-07-15T06:20:20;19.33;59.21
65884;HTU21D;52663;51.038;5.858;2022-07-15T06:22:46;19.36;58.87
65884;HTU21D;52663;51.038;5.858;2022-07-15T06:25:12;19.31;59.18
65884;HTU21D;52663;51.038;5.858;2022-07-15T06:27:41;19.39;59.09
65884;HTU21D;52663;51.038;5.858;2022-07-15T06:30:07;19.57;58.45
65884;HTU21D;52663;51.038;5.858;2022-07-15T06:32:34;19.63;57.91
65884;HTU21D;52663;51.038;5.858;2022-07-15T06:35:00;19.73;57.48
65884;HTU21D;52663;51.038;5.858;2022-07-15T06:37:26;19.75;57.46
65884;HTU21D;52663;51.038;5.858;2022-07-15T06:39:53;19.76;57.51
65884;HTU21D;52663;51.038;5.858;2022-07-15T06:42:24;19.85;57.25
65884;HTU21D;52663;51.038;5.858;2022-07-15T06:45:01;19.91;56.87
65884;HTU21D;52663;51.038;5.858;2022-07-15T06:47:27;19.91;56.74
65884;HTU21D;52663;51.038;5.858;2022-07-15T06:49:57;20.02;56.87
65884;HTU21D;52663;51.038;5.858;2022-07-15T06:52:26;20.16;56.32
65884;HTU21D;52663;51.038;5.858;2022-07-15T06:54:51;20.30;55.51
65884;HTU21D;52663;51.038;5.858;2022-07-15T06:57:19;20.36;55.10
65884;HTU21D;52663;51.038;5.858;2022-07-15T06:59:45;20.45;54.73
65884;HTU21D;52663;51.038;5.858;2022-07-15T07:02:11;20.53;54.33
65884;HTU21D;52663;51.038;5.858;2022-07-15T07:04:36;20.57;54.15
65884;HTU21D;52663;51.038;5.858;2022-07-15T07:07:02;20.70;53.65
65884;HTU21D;52663;51.038;5.858;2022-07-15T07:09:28;20.88;53.04
65884;HTU21D;52663;51.038;5.858;2022-07-15T07:11:54;20.89;52.27
65884;HTU21D;52663;51.038;5.858;2022-07-15T07:14:20;20.85;52.60
65884;HTU21D;52663;51.038;5.858;2022-07-15T07:16:45;20.87;52.62
65884;HTU21D;52663;51.038;5.858;2022-07-15T07:19:12;20.99;52.42
65884;HTU21D;52663;51.038;5.858;2022-07-15T07:21:39;21.09;52.34
65884;HTU21D;52663;51.038;5.858;2022-07-15T07:24:05;21.18;51.79
65884;HTU21D;52663;51.038;5.858;2022-07-15T07:26:35;21.18;51.32
65884;HTU21D;52663;51.038;5.858;2022-07-15T07:29:01;21.13;51.08
65884;HTU21D;52663;51.038;5.858;2022-07-15T07:31:27;21.07;50.58
65884;HTU21D;52663;51.038;5.858;2022-07-15T07:33:54;21.02;50.56
65884;HTU21D;52663;51.038;5.858;2022-07-15T07:36:21;21.20;50.26
65884;HTU21D;52663;51.038;5.858;2022-07-15T07:38:46;21.47;49.76
65884;HTU21D;52663;51.038;5.858;2022-07-15T07:41:12;21.73;49.07
65884;HTU21D;52663;51.038;5.858;2022-07-15T07:43:38;21.95;48.45
65884;HTU21D;52663;51.038;5.858;2022-07-15T07:46:04;22.16;48.15
65884;HTU21D;52663;51.038;5.858;2022-07-15T07:48:30;22.38;47.73
65884;HTU21D;52663;51.038;5.858;2022-07-15T07:50:57;22.51;47.17
65884;HTU21D;52663;51.038;5.858;2022-07-15T07:53:23;22.48;46.69
65884;HTU21D;52663;51.038;5.858;2022-07-15T07:55:49;22.29;46.73
65884;HTU21D;52663;51.038;5.858;2022-07-15T07:58:17;22.18;46.60
65884;HTU21D;52663;51.038;5.858;2022-07-15T08:00:44;22.03;47.12
65884;HTU21D;52663;51.038;5.858;2022-07-15T08:03:10;22.13;46.92
65884;HTU21D;52663;51.038;5.858;2022-07-15T08:05:36;22.35;46.55
65884;HTU21D;52663;51.038;5.858;2022-07-15T08:08:07;22.51;45.85
65884;HTU21D;52663;51.038;5.858;2022-07-15T08:10:33;22.54;45.39
65884;HTU21D;52663;51.038;5.858;2022-07-15T08:12:59;22.46;45.36
65884;HTU21D;52663;51.038;5.858;2022-07-15T08:15:27;22.35;45.48
65884;HTU21D;52663;51.038;5.858;2022-07-15T08:17:53;22.27;45.65
65884;HTU21D;52663;51.038;5.858;2022-07-15T08:20:18;22.11;45.78
65884;HTU21D;52663;51.038;5.858;2022-07-15T08:22:44;22.04;45.57
65884;HTU21D;52663;51.038;5.858;2022-07-15T08:25:10;22.08;45.72
65884;HTU21D;52663;51.038;5.858;2022-07-15T08:27:36;22.24;45.14
65884;HTU21D;52663;51.038;5.858;2022-07-15T08:30:03;22.26;44.90
65884;HTU21D;52663;51.038;5.858;2022-07-15T08:32:29;22.36;44.76
65884;HTU21D;52663;51.038;5.858;2022-07-15T08:34:54;22.54;43.02
65884;HTU21D;52663;51.038;5.858;2022-07-15T08:37:20;22.84;41.76
65884;HTU21D;52663;51.038;5.858;2022-07-15T08:39:46;23.06;41.06
65884;HTU21D;52663;51.038;5.858;2022-07-15T08:42:12;23.29;40.72
65884;HTU21D;52663;51.038;5.858;2022-07-15T08:44:41;23.60;39.75
65884;HTU21D;52663;51.038;5.858;2022-07-15T08:47:07;23.85;38.08
65884;HTU21D;52663;51.038;5.858;2022-07-15T08:49:33;23.87;36.90
65884;HTU21D;52663;51.038;5.858;2022-07-15T08:52:01;23.79;36.94
65884;HTU21D;52663;51.038;5.858;2022-07-15T08:54:28;23.69;37.71
65884;HTU21D;52663;51.038;5.858;2022-07-15T08:56:54;23.66;38.11
65884;HTU21D;52663;51.038;5.858;2022-07-15T08:59:20;23.73;37.94
65884;HTU21D;52663;51.038;5.858;2022-07-15T09:01:48;23.85;37.43
65884;HTU21D;52663;51.038;5.858;2022-07-15T09:04:17;24.13;37.26
65884;HTU21D;52663;51.038;5.858;2022-07-15T09:06:45;24.47;36.81
65884;HTU21D;52663;51.038;5.858;2022-07-15T09:11:44;24.99;36.11
65884;HTU21D;52663;51.038;5.858;2022-07-15T09:14:18;25.13;36.34
65884;HTU21D;52663;51.038;5.858;2022-07-15T09:16:45;25.33;36.19
65884;HTU21D;52663;51.038;5.858;2022-07-15T09:19:11;25.75;35.48
65884;HTU21D;52663;51.038;5.858;2022-07-15T09:21:41;26.01;34.53
65884;HTU21D;52663;51.038;5.858;2022-07-15T09:24:18;26.13;34.28
65884;HTU21D;52663;51.038;5.858;2022-07-15T09:26:44;26.36;33.31
65884;HTU21D;52663;51.038;5.858;2022-07-15T09:29:14;26.37;32.74
65884;HTU21D;52663;51.038;5.858;2022-07-15T09:32:01;26.30;33.24
65884;HTU21D;52663;51.038;5.858;2022-07-15T09:35:06;26.39;32.37
65884;HTU21D;52663;51.038;5.858;2022-07-15T09:37:55;26.15;32.79
65884;HTU21D;52663;51.038;5.858;2022-07-15T09:40:21;25.91;33.00
65884;HTU21D;52663;51.038;5.858;2022-07-15T09:43:01;25.86;33.31
65884;HTU21D;52663;51.038;5.858;2022-07-15T09:45:29;25.81;33.79
65884;HTU21D;52663;51.038;5.858;2022-07-15T09:48:10;26.13;33.81
65884;HTU21D;52663;51.038;5.858;2022-07-15T09:50:39;26.47;32.99
65884;HTU21D;52663;51.038;5.858;2022-07-15T09:53:12;26.64;32.02
65884;HTU21D;52663;51.038;5.858;2022-07-15T09:55:40;26.45;32.18
65884;HTU21D;52663;51.038;5.858;2022-07-15T09:58:07;26.09;32.55
65884;HTU21D;52663;51.038;5.858;2022-07-15T10:00:36;25.83;33.16
65884;HTU21D;52663;51.038;5.858;2022-07-15T10:03:02;25.95;33.34
65884;HTU21D;52663;51.038;5.858;2022-07-15T10:05:29;25.99;33.15
65884;HTU21D;52663;51.038;5.858;2022-07-15T10:08:01;26.19;33.27
65884;HTU21D;52663;51.038;5.858;2022-07-15T10:10:27;26.52;32.63
65884;HTU21D;52663;51.038;5.858;2022-07-15T10:21:08;27.42;30.82
65884;HTU21D;52663;51.038;5.858;2022-07-15T10:26:49;27.57;30.06
65884;HTU21D;52663;51.038;5.858;2022-07-15T10:29:16;27.64;30.04
65884;HTU21D;52663;51.038;5.858;2022-07-15T10:31:44;27.67;30.76
65884;HTU21D;52663;51.038;5.858;2022-07-15T10:39:15;28.62;28.92
65884;HTU21D;52663;51.038;5.858;2022-07-15T10:41:59;29.01;28.23
65884;HTU21D;52663;51.038;5.858;2022-07-15T10:44:35;29.46;27.33
65884;HTU21D;52663;51.038;5.858;2022-07-15T10:49:42;30.33;25.91
65884;HTU21D;52663;51.038;5.858;2022-07-15T10:52:17;30.36;25.97
65884;HTU21D;52663;51.038;5.858;2022-07-15T11:00:29;30.06;25.22
65884;HTU21D;52663;51.038;5.858;2022-07-15T11:03:05;29.11;26.38
65884;HTU21D;52663;51.038;5.858;2022-07-15T11:05:33;28.48;27.45
65884;HTU21D;52663;51.038;5.858;2022-07-15T11:07:59;27.98;27.61
65884;HTU21D;52663;51.038;5.858;2022-07-15T11:10:25;27.74;27.47
65884;HTU21D;52663;51.038;5.858;2022-07-15T11:12:54;27.56;28.53
65884;HTU21D;52663;51.038;5.858;2022-07-15T11:15:21;28.03;28.68
65884;HTU21D;52663;51.038;5.858;2022-07-15T11:17:52;28.87;27.39
65884;HTU21D;52663;51.038;5.858;2022-07-15T11:20:26;29.66;26.75
65884;HTU21D;52663;51.038;5.858;2022-07-15T11:23:09;30.28;25.80
65884;HTU21D;52663;51.038;5.858;2022-07-15T11:25:47;30.63;24.94
65884;HTU21D;52663;51.038;5.858;2022-07-15T11:28:14;31.14;23.61
65884;HTU21D;52663;51.038;5.858;2022-07-15T11:33:14;30.87;23.53
65884;HTU21D;52663;51.038;5.858;2022-07-15T11:35:52;30.63;23.53
65884;HTU21D;52663;51.038;5.858;2022-07-15T11:38:24;30.37;24.17
65884;HTU21D;52663;51.038;5.858;2022-07-15T11:40:56;30.23;25.07
65884;HTU21D;52663;51.038;5.858;2022-07-15T11:43:41;30.50;25.04
65884;HTU21D;52663;51.038;5.858;2022-07-15T11:46:27;30.46;24.49
65884;HTU21D;52663;51.038;5.858;2022-07-15T11:48:59;30.48;25.14
65884;HTU21D;52663;51.038;5.858;2022-07-15T11:51:30;30.82;24.85
65884;HTU21D;52663;51.038;5.858;2022-07-15T11:53:58;31.00;23.91
65884;HTU21D;52663;51.038;5.858;2022-07-15T11:56:24;30.69;23.96
65884;HTU21D;52663;51.038;5.858;2022-07-15T11:58:56;30.48;24.24
65884;HTU21D;52663;51.038;5.858;2022-07-15T12:01:25;30.28;24.35
65884;HTU21D;52663;51.038;5.858;2022-07-15T12:03:56;30.18;24.28
65884;HTU21D;52663;51.038;5.858;2022-07-15T12:06:27;29.88;24.53
65884;HTU21D;52663;51.038;5.858;2022-07-15T12:08:59;29.54;24.24
65884;HTU21D;52663;51.038;5.858;2022-07-15T12:11:36;29.09;24.70
65884;HTU21D;52663;51.038;5.858;2022-07-15T12:14:08;28.86;25.64
65884;HTU21D;52663;51.038;5.858;2022-07-15T12:16:43;28.43;26.38
65884;HTU21D;52663;51.038;5.858;2022-07-15T12:19:15;28.17;27.20
65884;HTU21D;52663;51.038;5.858;2022-07-15T12:21:42;28.61;27.34
65884;HTU21D;52663;51.038;5.858;2022-07-15T12:24:17;29.97;25.74
65884;HTU21D;52663;51.038;5.858;2022-07-15T12:26:57;31.59;23.48
65884;HTU21D;52663;51.038;5.858;2022-07-15T12:29:26;32.67;21.57
65884;HTU21D;52663;51.038;5.858;2022-07-15T12:31:58;32.67;20.74
65884;HTU21D;52663;51.038;5.858;2022-07-15T12:37:21;31.27;22.31
65884;HTU21D;52663;51.038;5.858;2022-07-15T12:40:04;31.46;22.63
65884;HTU21D;52663;51.038;5.858;2022-07-15T12:42:48;30.91;23.40
65884;HTU21D;52663;51.038;5.858;2022-07-15T12:45:25;30.22;24.26
65884;HTU21D;52663;51.038;5.858;2022-07-15T12:48:12;29.60;25.51
65884;HTU21D;52663;51.038;5.858;2022-07-15T12:53:21;28.59;27.00
65884;HTU21D;52663;51.038;5.858;2022-07-15T12:55:48;28.24;27.45
65884;HTU21D;52663;51.038;5.858;2022-07-15T12:58:17;28.02;27.87
65884;HTU21D;52663;51.038;5.858;2022-07-15T13:00:48;27.79;28.40
65884;HTU21D;52663;51.038;5.858;2022-07-15T13:03:19;27.73;28.52
65884;HTU21D;52663;51.038;5.858;2022-07-15T13:05:48;27.66;28.71
65884;HTU21D;52663;51.038;5.858;2022-07-15T13:08:18;27.59;28.73
65884;HTU21D;52663;51.038;5.858;2022-07-15T13:10:47;27.91;28.67
65884;HTU21D;52663;51.038;5.858;2022-07-15T13:13:16;28.40;27.36
65884;HTU21D;52663;51.038;5.858;2022-07-15T13:15:43;28.64;26.44
65884;HTU21D;52663;51.038;5.858;2022-07-15T13:18:09;28.89;27.81
65884;HTU21D;52663;51.038;5.858;2022-07-15T13:20:35;29.18;27.25
65884;HTU21D;52663;51.038;5.858;2022-07-15T13:23:02;29.33;26.60
65884;HTU21D;52663;51.038;5.858;2022-07-15T13:25:29;29.41;26.42
65884;HTU21D;52663;51.038;5.858;2022-07-15T13:27:55;29.51;26.17
65884;HTU21D;52663;51.038;5.858;2022-07-15T13:30:22;29.58;25.86
65884;HTU21D;52663;51.038;5.858;2022-07-15T13:32:47;29.67;26.43
65884;HTU21D;52663;51.038;5.858;2022-07-15T13:35:16;29.77;25.51
65884;HTU21D;52663;51.038;5.858;2022-07-15T13:37:43;29.50;25.54
65884;HTU21D;52663;51.038;5.858;2022-07-15T13:40:10;29.38;25.83
65884;HTU21D;52663;51.038;5.858;2022-07-15T13:42:37;29.38;26.23
65884;HTU21D;52663;51.038;5.858;2022-07-15T13:45:05;29.37;26.15
65884;HTU21D;52663;51.038;5.858;2022-07-15T13:47:31;29.06;26.40
65884;HTU21D;52663;51.038;5.858;2022-07-15T13:49:57;28.78;26.30
65884;HTU21D;52663;51.038;5.858;2022-07-15T13:52:47;28.79;26.22
65884;HTU21D;52663;51.038;5.858;2022-07-15T13:55:14;28.71;26.44
65884;HTU21D;52663;51.038;5.858;2022-07-15T13:57:40;28.55;26.22
65884;HTU21D;52663;51.038;5.858;2022-07-15T14:00:09;28.01;27.01
65884;HTU21D;52663;51.038;5.858;2022-07-15T14:02:38;27.76;27.65
65884;HTU21D;52663;51.038;5.858;2022-07-15T14:05:05;27.49;28.15
65884;HTU21D;52663;51.038;5.858;2022-07-15T14:07:31;27.31;28.71
65884;HTU21D;52663;51.038;5.858;2022-07-15T14:09:57;27.41;28.82
65884;HTU21D;52663;51.038;5.858;2022-07-15T14:12:26;27.38;28.73
65884;HTU21D;52663;51.038;5.858;2022-07-15T14:14:52;27.39;28.80
65884;HTU21D;52663;51.038;5.858;2022-07-15T14:17:18;27.57;28.82
65884;HTU21D;52663;51.038;5.858;2022-07-15T14:19:44;27.80;27.94
65884;HTU21D;52663;51.038;5.858;2022-07-15T14:22:10;27.91;27.29
65884;HTU21D;52663;51.038;5.858;2022-07-15T14:24:36;27.99;26.97
65884;HTU21D;52663;51.038;5.858;2022-07-15T14:27:02;27.94;27.39
65884;HTU21D;52663;51.038;5.858;2022-07-15T14:29:28;27.78;27.85
65884;HTU21D;52663;51.038;5.858;2022-07-15T14:31:54;27.74;27.67
65884;HTU21D;52663;51.038;5.858;2022-07-15T14:34:20;27.71;27.89
65884;HTU21D;52663;51.038;5.858;2022-07-15T14:36:45;27.64;28.03
65884;HTU21D;52663;51.038;5.858;2022-07-15T14:39:11;27.41;28.26
65884;HTU21D;52663;51.038;5.858;2022-07-15T14:41:37;27.26;28.51
65884;HTU21D;52663;51.038;5.858;2022-07-15T14:44:03;27.23;28.72
65884;HTU21D;52663;51.038;5.858;2022-07-15T14:46:29;27.10;28.63
65884;HTU21D;52663;51.038;5.858;2022-07-15T14:48:55;27.14;28.58
65884;HTU21D;52663;51.038;5.858;2022-07-15T14:51:20;27.31;28.97
65884;HTU21D;52663;51.038;5.858;2022-07-15T14:53:46;27.39;29.02
65884;HTU21D;52663;51.038;5.858;2022-07-15T14:56:12;27.46;28.68
65884;HTU21D;52663;51.038;5.858;2022-07-15T14:58:38;27.55;28.33
65884;HTU21D;52663;51.038;5.858;2022-07-15T15:01:04;27.50;28.23
65884;HTU21D;52663;51.038;5.858;2022-07-15T15:03:29;27.34;28.39
65884;HTU21D;52663;51.038;5.858;2022-07-15T15:05:56;27.32;28.17
65884;HTU21D;52663;51.038;5.858;2022-07-15T15:08:22;27.27;28.23
65884;HTU21D;52663;51.038;5.858;2022-07-15T15:10:48;27.11;28.34
65884;HTU21D;52663;51.038;5.858;2022-07-15T15:13:14;27.08;28.58
65884;HTU21D;52663;51.038;5.858;2022-07-15T15:15:40;27.13;28.53
65884;HTU21D;52663;51.038;5.858;2022-07-15T15:18:05;27.20;28.87
65884;HTU21D;52663;51.038;5.858;2022-07-15T15:20:31;27.19;28.45
65884;HTU21D;52663;51.038;5.858;2022-07-15T15:22:57;27.22;28.51
65884;HTU21D;52663;51.038;5.858;2022-07-15T15:25:23;27.26;28.61
65884;HTU21D;52663;51.038;5.858;2022-07-15T15:28:08;27.14;28.47
65884;HTU21D;52663;51.038;5.858;2022-07-15T15:30:34;27.11;28.45
65884;HTU21D;52663;51.038;5.858;2022-07-15T15:33:00;27.06;28.84
65884;HTU21D;52663;51.038;5.858;2022-07-15T15:35:25;26.89;29.55
65884;HTU21D;52663;51.038;5.858;2022-07-15T15:37:51;26.72;30.13
65884;HTU21D;52663;51.038;5.858;2022-07-15T15:40:17;26.69;30.02
65884;HTU21D;52663;51.038;5.858;2022-07-15T15:42:43;26.63;30.52
65884;HTU21D;52663;51.038;5.858;2022-07-15T15:45:11;26.79;30.51
65884;HTU21D;52663;51.038;5.858;2022-07-15T15:47:37;26.98;29.98
65884;HTU21D;52663;51.038;5.858;2022-07-15T15:50:04;27.04;29.63
65884;HTU21D;52663;51.038;5.858;2022-07-15T15:52:30;27.07;29.57
65884;HTU21D;52663;51.038;5.858;2022-07-15T15:54:55;27.02;29.85
65884;HTU21D;52663;51.038;5.858;2022-07-15T15:57:22;27.02;29.52